Aérodrome :
LOGIN :

S'inscrire | Disclaimer

   EN    FR    IT 

 










Légende :    VFR   VFR Marginal   IFR   IFR Intensif   IFR Très Intensif
Visi : 
Plafond : 
>= 8 km
>= 3000ft
5 à 8 km
1000 à 3000 ft
1500m à 5 km
500 à 1000 ft
800 à 1500m
200 à 500 ft
< 800m
< 200 ft
Symboles :   Orages  Brouillard  Fortes neiges  Fortes précipitations  Vent > 20 kt
SIGMETs :   Divers  Orages  Givrage  Turbulence  Onde Orograph.  Cendres Volcan.







- Altitude de l'aérodrome : 245 ft
- Code IATA : BIQ
- Voir les cartes d'approche


LFBZ - Biarritz

DERNIER METAR :
  • 251100Z AUTO 28012KT 9999 SCT016/// BKN022/// BKN037/// ///TCU 20/17 Q1022 BECMG SCT015 SCT040 BKN090

METARs EXPIRÉS :
  • 251030Z AUTO 26008KT 200V290 9999 FEW011 BKN017 BKN022 20/17 Q1022 NOSIG
  • 251000Z AUTO 22004KT 180V300 9999 FEW007/// BKN020/// BKN031/// ///TCU 18/17 Q1022 BECMG SCT015 SCT040 BKN090
  • 250930Z AUTO 22003KT 180V280 9999 BKN015/// BKN031/// BKN041/// ///TCU 18/17 Q1022 BECMG SCT015 SCT040 BKN090
  • 250900Z AUTO 21004KT 170V250 9999 3600 SCT015/// BKN021/// BKN035/// ///TCU 17/17 Q1022 BECMG SCT015 SCT040 BKN090
  • 250830Z AUTO 21004KT 170V260 9999 SCT018/// SCT024/// BKN029/// ///TCU 17/16 Q1022 BECMG SCT015 SCT040 BKN090

TAF AMD TAF LFBZ
Valide du 25 à 09h jusqu'au 26 à 06h UTC


250949Z 2509/2606 28005KT 9999 SCT015 SCT040 BKN090
PROB30
TEMPO 2509/2511 4000 SHRA BKN015TCU
BECMG 2515/2517 BKN030
Pas de NOTAMs connus pour ce terrain.
1 SIGMET publié pour la FIR Bordeaux (LFBB) :
 
Orages noyés dans la masse
LFBB SIGMET 6 VALID 251030/251130 LFPW
LFBB BORDEAUX FIR/UIR EMBD TS OBS WI N4230 E00130 - N4230 E00045 - N4345 E00145 - N4330 E00230 TOP FL340 MOV NE 20KT NC=



MET'MAP, la Météo Aéronautique d'un coup d'oeil ! - Copyright ORBIFLY Décembre 2007 - Disclaimer

ORBIFLY MET'MAP TEAM :

Programmation & Développement : Alexandra Zaïnal
Conception & Développement : Baudouin d'Aumeries
Co-Programmation & Développement : Marc-Olivier Méhu
Soutien technique & logistique : Manuel Goepfert

Contact : metmap@orbifly.com




SOURCES & CREDITS :

   NOAA